Time;durP1;ratioP1;P1;durP2;ratioP2;P2;SDS_P1;SDS_P2;PMS_P1;PMS_P2;Temp;Humidity;BMP_temperature;BMP_pressure;BME280_temperature;BME280_humidity;BME280_pressure;Samples;Min_cycle;Max_cycle;Signal;HPM_P1;HPM_P2
2021/05/26 00:01:48;;;;;;;7.97;3.10;;;;;;;;;;5043665;28;20020;-68
2021/05/26 00:04:13;;;;;;;11.93;3.30;;;;;;;;;;5061228;28;20779;-68
2021/05/26 00:06:39;;;;;;;11.18;3.25;;;;;;;;;;5062449;28;20279;-69
2021/05/26 00:09:04;;;;;;;12.18;3.30;;;;;;;;;;5061997;28;20111;-69
2021/05/26 00:11:29;;;;;;;6.85;2.85;;;;;;;;;;5062325;28;20398;-68
2021/05/26 00:13:54;;;;;;;7.82;3.28;;;;;;;;;;5063143;28;20040;-68
2021/05/26 00:16:22;;;;;;;8.30;3.50;;;;;;;;;;5059834;28;20031;-67
2021/05/26 00:18:47;;;;;;;11.50;3.53;;;;;;;;;;5062652;28;20111;-68
2021/05/26 00:21:12;;;;;;;11.70;4.03;;;;;;;;;;5061652;28;22215;-68
2021/05/26 00:23:37;;;;;;;11.77;4.00;;;;;;;;;;5062481;28;20267;-67
2021/05/26 00:26:03;;;;;;;12.07;3.70;;;;;;;;;;5062010;28;20066;-68
2021/05/26 00:28:28;;;;;;;10.40;4.32;;;;;;;;;;5060734;28;20025;-67
2021/05/26 00:30:55;;;;;;;7.72;3.72;;;;;;;;;;5062774;28;20051;-68
2021/05/26 00:33:21;;;;;;;10.73;4.35;;;;;;;;;;5063059;28;20161;-67
2021/05/26 00:35:46;;;;;;;25.10;5.32;;;;;;;;;;5062574;28;20453;-68
2021/05/26 00:38:12;;;;;;;13.88;4.45;;;;;;;;;;5064213;28;20401;-67
2021/05/26 00:40:37;;;;;;;17.35;5.65;;;;;;;;;;5063673;28;20504;-68
2021/05/26 00:43:02;;;;;;;13.15;5.50;;;;;;;;;;5065818;28;20033;-67
2021/05/26 00:45:28;;;;;;;15.55;6.35;;;;;;;;;;5061702;28;20099;-67
2021/05/26 00:47:53;;;;;;;14.57;5.00;;;;;;;;;;5049759;28;20074;-68
2021/05/26 00:50:22;;;;;;;14.48;6.78;;;;;;;;;;5066714;28;20028;-67
2021/05/26 00:55:17;;;;;;;11.00;6.43;;;;;;;;;;5081193;28;20040;-62
2021/05/26 00:57:42;;;;;;;14.18;4.93;;;;;;;;;;5084359;28;20039;-67
2021/05/26 01:00:08;;;;;;;19.08;7.15;;;;;;;;;;5084574;28;20149;-64
2021/05/26 01:02:34;;;;;;;14.77;6.13;;;;;;;;;;5082877;28;20070;-64
2021/05/26 01:04:59;;;;;;;17.48;5.28;;;;;;;;;;5082386;28;20060;-65
2021/05/26 01:07:24;;;;;;;14.57;5.57;;;;;;;;;;5084322;28;20481;-64
2021/05/26 01:09:49;;;;;;;15.05;7.15;;;;;;;;;;5084027;28;20250;-64
2021/05/26 01:12:15;;;;;;;14.45;7.13;;;;;;;;;;5084429;28;20028;-64
2021/05/26 01:14:40;;;;;;;16.35;5.55;;;;;;;;;;5084680;28;20044;-65
2021/05/26 01:17:05;;;;;;;20.02;7.25;;;;;;;;;;5083087;28;20025;-64
2021/05/26 01:19:30;;;;;;;15.40;7.32;;;;;;;;;;5084469;28;20024;-63
2021/05/26 01:21:56;;;;;;;17.30;7.45;;;;;;;;;;5081503;28;20879;-63
2021/05/26 01:24:21;;;;;;;9.68;4.25;;;;;;;;;;5083450;28;20128;-66
2021/05/26 01:26:46;;;;;;;9.00;3.00;;;;;;;;;;5083745;28;20108;-63
2021/05/26 01:29:13;;;;;;;20.98;5.10;;;;;;;;;;5082933;28;20165;-64
2021/05/26 01:31:38;;;;;;;17.60;5.72;;;;;;;;;;5083592;28;20138;-64
2021/05/26 01:34:04;;;;;;;10.93;4.47;;;;;;;;;;5083804;28;20351;-66
2021/05/26 01:36:29;;;;;;;21.55;5.35;;;;;;;;;;5083637;28;20101;-63
2021/05/26 01:38:54;;;;;;;9.02;5.40;;;;;;;;;;5083372;28;20019;-64
2021/05/26 01:41:19;;;;;;;16.20;5.85;;;;;;;;;;5083528;28;20020;-66
2021/05/26 01:43:46;;;;;;;14.02;5.00;;;;;;;;;;5085277;28;20040;-65
2021/05/26 01:46:11;;;;;;;12.35;5.30;;;;;;;;;;5086874;28;20028;-65
2021/05/26 01:48:36;;;;;;;17.23;5.07;;;;;;;;;;5087399;28;20032;-64
2021/05/26 01:51:02;;;;;;;13.02;5.40;;;;;;;;;;5086012;28;20084;-65
2021/05/26 01:53:29;;;;;;;16.13;5.35;;;;;;;;;;5086222;28;20093;-64
2021/05/26 01:55:54;;;;;;;24.77;6.60;;;;;;;;;;5087722;28;20078;-64
2021/05/26 01:58:19;;;;;;;14.55;4.80;;;;;;;;;;5086257;28;20070;-65
2021/05/26 02:00:45;;;;;;;16.67;5.07;;;;;;;;;;5068959;28;20141;-64
2021/05/26 02:03:10;;;;;;;17.52;5.68;;;;;;;;;;5083585;28;20012;-64
2021/05/26 02:05:35;;;;;;;17.98;4.88;;;;;;;;;;5086170;28;20028;-63
2021/05/26 02:08:01;;;;;;;12.35;4.60;;;;;;;;;;5084920;28;20016;-65
2021/05/26 02:13:10;;;;;;;16.98;5.30;;;;;;;;;;5088690;28;20047;-64
2021/05/26 02:15:35;;;;;;;14.40;5.03;;;;;;;;;;5085694;28;20478;-63
2021/05/26 02:18:01;;;;;;;21.15;4.70;;;;;;;;;;5087135;28;20020;-65
2021/05/26 02:20:26;;;;;;;9.75;3.55;;;;;;;;;;5086681;28;20027;-64
2021/05/26 02:22:51;;;;;;;20.02;6.05;;;;;;;;;;5087134;28;20055;-66
2021/05/26 02:25:16;;;;;;;16.42;4.43;;;;;;;;;;5086953;28;20099;-65
2021/05/26 02:27:41;;;;;;;12.18;5.32;;;;;;;;;;5085463;28;20469;-66
2021/05/26 02:30:07;;;;;;;13.60;4.77;;;;;;;;;;5085518;28;20042;-64
2021/05/26 02:32:32;;;;;;;17.58;5.00;;;;;;;;;;5086386;28;20262;-66
2021/05/26 02:34:57;;;;;;;16.45;4.18;;;;;;;;;;5086762;28;20039;-65
2021/05/26 02:37:23;;;;;;;14.40;5.50;;;;;;;;;;5086443;28;20024;-66
2021/05/26 02:39:48;;;;;;;14.88;5.65;;;;;;;;;;5085999;28;20258;-63
2021/05/26 02:42:13;;;;;;;22.43;5.27;;;;;;;;;;5087455;28;20469;-63
2021/05/26 02:44:38;;;;;;;15.25;5.60;;;;;;;;;;5086334;28;20258;-65
2021/05/26 02:47:03;;;;;;;12.68;3.75;;;;;;;;;;5086489;28;20449;-64
2021/05/26 02:49:29;;;;;;;17.10;5.47;;;;;;;;;;5086825;28;20137;-64
2021/05/26 02:51:54;;;;;;;16.88;5.97;;;;;;;;;;5084795;28;20052;-66
2021/05/26 02:54:19;;;;;;;16.17;5.83;;;;;;;;;;5083511;28;20123;-65
2021/05/26 02:56:44;;;;;;;17.73;5.85;;;;;;;;;;5085831;28;20635;-65
2021/05/26 02:59:09;;;;;;;20.50;5.80;;;;;;;;;;5086451;28;20035;-64
2021/05/26 03:01:35;;;;;;;19.67;5.68;;;;;;;;;;5085175;28;20020;-65
2021/05/26 03:04:00;;;;;;;14.55;6.03;;;;;;;;;;5084488;28;20485;-64
2021/05/26 03:06:25;;;;;;;10.00;5.20;;;;;;;;;;5085638;28;20095;-65
2021/05/26 03:08:51;;;;;;;18.88;5.22;;;;;;;;;;5086998;28;20446;-65
2021/05/26 03:11:16;;;;;;;23.33;6.60;;;;;;;;;;5067620;28;20039;-63
2021/05/26 03:13:41;;;;;;;16.60;5.45;;;;;;;;;;5085847;28;20028;-64
2021/05/26 03:16:10;;;;;;;14.48;5.43;;;;;;;;;;5085601;28;20138;-66
2021/05/26 03:18:36;;;;;;;7.75;3.83;;;;;;;;;;5085697;28;20027;-64
2021/05/26 03:21:01;;;;;;;18.90;5.35;;;;;;;;;;5086014;28;20049;-67
2021/05/26 03:23:26;;;;;;;17.63;5.05;;;;;;;;;;5084453;28;20012;-65
2021/05/26 03:25:52;;;;;;;23.15;6.60;;;;;;;;;;5085756;28;20016;-64
2021/05/26 03:28:17;;;;;;;14.38;3.45;;;;;;;;;;5086390;28;20028;-66
2021/05/26 03:30:43;;;;;;;24.60;7.32;;;;;;;;;;5084909;28;20113;-65
2021/05/26 03:33:11;;;;;;;15.95;5.45;;;;;;;;;;5085352;28;20080;-64
2021/05/26 03:35:36;;;;;;;11.27;3.53;;;;;;;;;;5084895;28;20965;-65
2021/05/26 03:38:02;;;;;;;20.35;5.80;;;;;;;;;;5085162;28;20107;-64
2021/05/26 03:40:27;;;;;;;13.32;4.45;;;;;;;;;;5085871;28;20024;-64
2021/05/26 03:42:52;;;;;;;20.98;5.20;;;;;;;;;;5085849;28;20031;-64
2021/05/26 03:45:17;;;;;;;27.15;5.85;;;;;;;;;;5086094;28;20062;-64
2021/05/26 03:47:43;;;;;;;17.08;5.50;;;;;;;;;;5085407;28;20102;-64
2021/05/26 03:50:12;;;;;;;13.35;5.97;;;;;;;;;;5086511;28;20073;-65
2021/05/26 03:52:38;;;;;;;10.30;5.28;;;;;;;;;;5068412;28;20080;-63
2021/05/26 03:55:03;;;;;;;10.75;3.67;;;;;;;;;;5082390;28;20033;-64
2021/05/26 03:57:29;;;;;;;20.27;5.32;;;;;;;;;;5084170;28;20024;-65
2021/05/26 03:59:54;;;;;;;15.93;5.83;;;;;;;;;;5086356;28;20474;-64
2021/05/26 04:02:19;;;;;;;12.77;4.85;;;;;;;;;;5083846;28;20265;-67
2021/05/26 04:04:44;;;;;;;18.73;4.60;;;;;;;;;;5083724;28;20019;-66
2021/05/26 04:07:09;;;;;;;12.00;4.37;;;;;;;;;;5084055;28;20304;-63
2021/05/26 04:09:34;;;;;;;10.47;4.80;;;;;;;;;;5084898;28;20266;-65
2021/05/26 04:12:00;;;;;;;16.80;6.00;;;;;;;;;;5084045;28;20266;-65
2021/05/26 04:14:25;;;;;;;14.70;5.30;;;;;;;;;;5085390;28;20016;-65
2021/05/26 04:16:50;;;;;;;11.13;5.35;;;;;;;;;;5084396;28;20036;-64
2021/05/26 04:19:15;;;;;;;15.23;5.95;;;;;;;;;;5084761;28;20024;-67
2021/05/26 04:21:40;;;;;;;18.95;5.05;;;;;;;;;;5083870;28;20024;-65
2021/05/26 04:24:06;;;;;;;19.47;5.20;;;;;;;;;;5083873;28;20020;-63
2021/05/26 04:26:31;;;;;;;15.23;5.18;;;;;;;;;;5084407;28;20305;-67
2021/05/26 04:28:56;;;;;;;13.07;4.93;;;;;;;;;;5085602;28;20109;-67
2021/05/26 04:31:21;;;;;;;18.70;5.80;;;;;;;;;;5066720;28;20207;-66
2021/05/26 04:33:47;;;;;;;19.70;4.40;;;;;;;;;;5084819;28;20016;-65
2021/05/26 04:36:12;;;;;;;12.32;4.30;;;;;;;;;;5085309;28;20077;-64
2021/05/26 04:38:37;;;;;;;16.02;5.00;;;;;;;;;;5084062;28;20043;-65
2021/05/26 04:41:03;;;;;;;16.98;5.13;;;;;;;;;;5084677;28;20230;-66
2021/05/26 04:43:28;;;;;;;15.77;5.28;;;;;;;;;;5085091;28;20012;-65
2021/05/26 04:45:54;;;;;;;12.73;3.60;;;;;;;;;;5084506;28;20043;-64
2021/05/26 04:48:19;;;;;;;10.90;4.20;;;;;;;;;;5083918;28;20016;-64
2021/05/26 04:50:44;;;;;;;5.45;3.05;;;;;;;;;;5084239;28;20028;-64
2021/05/26 04:53:09;;;;;;;14.68;3.95;;;;;;;;;;5083646;28;20065;-65
2021/05/26 04:55:35;;;;;;;13.23;3.47;;;;;;;;;;5086268;28;20420;-64
2021/05/26 04:58:00;;;;;;;11.85;5.07;;;;;;;;;;5084041;28;20028;-65
2021/05/26 05:00:26;;;;;;;6.57;3.72;;;;;;;;;;5083673;28;20028;-64
2021/05/26 05:02:51;;;;;;;8.50;3.85;;;;;;;;;;5064567;28;20466;-64
2021/05/26 05:05:17;;;;;;;7.50;4.03;;;;;;;;;;5082763;28;20012;-66
2021/05/26 05:07:42;;;;;;;16.45;4.75;;;;;;;;;;5084838;28;20095;-64
2021/05/26 05:10:07;;;;;;;12.20;3.88;;;;;;;;;;5081166;28;20074;-64
2021/05/26 05:12:33;;;;;;;16.52;5.03;;;;;;;;;;5083147;28;20027;-67
2021/05/26 05:14:58;;;;;;;14.00;4.27;;;;;;;;;;5084085;28;20092;-65
2021/05/26 05:17:23;;;;;;;11.05;4.88;;;;;;;;;;5082366;28;20783;-67
2021/05/26 05:19:48;;;;;;;13.00;4.88;;;;;;;;;;5087038;28;20032;-65
2021/05/26 05:22:13;;;;;;;16.87;5.43;;;;;;;;;;5086985;28;20035;-65
2021/05/26 05:24:38;;;;;;;11.33;4.80;;;;;;;;;;5087277;28;20586;-64
2021/05/26 05:27:04;;;;;;;17.77;5.73;;;;;;;;;;5087588;28;20383;-65
2021/05/26 05:29:29;;;;;;;10.18;4.63;;;;;;;;;;5088074;28;20254;-64
2021/05/26 05:31:54;;;;;;;9.97;4.90;;;;;;;;;;5087177;28;20093;-64
2021/05/26 05:34:19;;;;;;;6.78;3.78;;;;;;;;;;5087729;28;20274;-66
2021/05/26 05:36:44;;;;;;;4.55;2.38;;;;;;;;;;5086986;28;20090;-63
2021/05/26 05:39:10;;;;;;;12.63;4.05;;;;;;;;;;5087153;28;20146;-64
2021/05/26 05:41:35;;;;;;;8.52;3.63;;;;;;;;;;5087466;28;20111;-64
2021/05/26 05:44:00;;;;;;;5.78;2.03;;;;;;;;;;5087043;28;20031;-64
2021/05/26 05:46:25;;;;;;;14.30;4.55;;;;;;;;;;5083444;28;20477;-65
2021/05/26 05:48:50;;;;;;;10.35;3.25;;;;;;;;;;5084166;28;20039;-64
2021/05/26 05:51:16;;;;;;;10.33;3.87;;;;;;;;;;5085487;28;20028;-65
2021/05/26 05:53:41;;;;;;;3.85;2.38;;;;;;;;;;5087188;28;20671;-64
2021/05/26 05:56:06;;;;;;;4.33;2.50;;;;;;;;;;5086434;28;20103;-65
2021/05/26 05:58:31;;;;;;;18.53;2.40;;;;;;;;;;5084347;28;20697;-63
2021/05/26 06:00:56;;;;;;;7.65;3.13;;;;;;;;;;5084905;28;20392;-65
2021/05/26 06:03:22;;;;;;;5.50;2.75;;;;;;;;;;5084575;28;20031;-63
2021/05/26 06:05:47;;;;;;;3.53;1.90;;;;;;;;;;5085933;28;20039;-65
2021/05/26 06:08:12;;;;;;;9.57;3.30;;;;;;;;;;5087612;28;20320;-64
2021/05/26 06:10:37;;;;;;;11.47;2.40;;;;;;;;;;5087250;28;20024;-65
2021/05/26 06:13:07;;;;;;;4.68;1.67;;;;;;;;;;5087019;28;20353;-64
2021/05/26 06:15:32;;;;;;;8.82;2.67;;;;;;;;;;5086580;28;20039;-65
2021/05/26 06:17:58;;;;;;;6.28;2.67;;;;;;;;;;5086641;28;20028;-65
2021/05/26 06:20:23;;;;;;;8.13;2.80;;;;;;;;;;5084411;28;20073;-64
2021/05/26 06:22:49;;;;;;;8.00;1.75;;;;;;;;;;5084000;28;20031;-64
2021/05/26 06:25:14;;;;;;;8.77;2.00;;;;;;;;;;5091689;28;20089;-65
2021/05/26 06:27:39;;;;;;;7.07;2.60;;;;;;;;;;5092243;28;20728;-64
2021/05/26 06:30:05;;;;;;;15.07;5.03;;;;;;;;;;5091048;28;20558;-65
2021/05/26 06:32:30;;;;;;;6.80;2.08;;;;;;;;;;5092178;28;20093;-65
2021/05/26 06:34:55;;;;;;;7.00;2.03;;;;;;;;;;5092286;28;20039;-64
2021/05/26 06:37:20;;;;;;;7.07;1.70;;;;;;;;;;5091989;28;20020;-64
2021/05/26 06:39:47;;;;;;;4.38;1.60;;;;;;;;;;5088163;28;20016;-64
2021/05/26 06:42:12;;;;;;;7.43;2.38;;;;;;;;;;5092368;28;20020;-66
2021/05/26 06:44:37;;;;;;;3.42;1.38;;;;;;;;;;5091930;28;20516;-63
2021/05/26 06:47:02;;;;;;;3.85;1.60;;;;;;;;;;5091397;28;20381;-64
2021/05/26 06:49:28;;;;;;;4.43;1.20;;;;;;;;;;5090731;28;20105;-64
2021/05/26 06:51:54;;;;;;;5.93;1.30;;;;;;;;;;5091944;28;20047;-65
2021/05/26 06:54:20;;;;;;;1.50;1.20;;;;;;;;;;5102956;23;20041;-65
2021/05/26 06:56:45;;;;;;;5.90;1.85;;;;;;;;;;5061482;28;20036;-64
2021/05/26 06:59:10;;;;;;;6.70;1.90;;;;;;;;;;5070323;28;20459;-65
2021/05/26 07:01:35;;;;;;;3.03;1.50;;;;;;;;;;5071082;28;20277;-65
2021/05/26 07:04:00;;;;;;;7.00;1.50;;;;;;;;;;5068311;28;20017;-65
2021/05/26 07:06:26;;;;;;;4.28;1.80;;;;;;;;;;5064553;28;20142;-65
2021/05/26 07:08:51;;;;;;;3.95;1.85;;;;;;;;;;5069855;28;20031;-63
2021/05/26 07:11:16;;;;;;;9.25;3.00;;;;;;;;;;5052937;28;20017;-65
2021/05/26 07:13:41;;;;;;;5.32;1.83;;;;;;;;;;5069571;28;20024;-65
2021/05/26 07:16:06;;;;;;;4.85;2.03;;;;;;;;;;5067968;28;20020;-65
2021/05/26 07:18:33;;;;;;;8.80;1.53;;;;;;;;;;5071090;28;20028;-64
2021/05/26 07:20:58;;;;;;;3.88;1.77;;;;;;;;;;5071416;28;20262;-65
2021/05/26 07:23:24;;;;;;;5.33;1.80;;;;;;;;;;5070936;28;20450;-64
2021/05/26 07:25:49;;;;;;;6.93;2.10;;;;;;;;;;5057347;28;20266;-65
2021/05/26 07:28:14;;;;;;;4.80;1.90;;;;;;;;;;5070677;28;20619;-65
2021/05/26 07:30:40;;;;;;;5.18;1.80;;;;;;;;;;5064740;28;20035;-66
2021/05/26 07:33:05;;;;;;;10.23;1.90;;;;;;;;;;5056935;28;20024;-65
2021/05/26 07:35:30;;;;;;;4.80;1.88;;;;;;;;;;5055619;28;20017;-65
2021/05/26 07:37:56;;;;;;;8.33;1.70;;;;;;;;;;5070470;28;20544;-63
2021/05/26 07:40:21;;;;;;;3.63;2.10;;;;;;;;;;5070427;28;20305;-64
2021/05/26 07:42:46;;;;;;;6.32;2.13;;;;;;;;;;5068540;28;20270;-64
2021/05/26 07:45:11;;;;;;;3.25;1.58;;;;;;;;;;5069436;28;20070;-64
2021/05/26 07:47:36;;;;;;;4.03;2.20;;;;;;;;;;5057391;28;20025;-65
2021/05/26 07:50:02;;;;;;;4.65;1.90;;;;;;;;;;5060284;28;20378;-65
2021/05/26 07:52:30;;;;;;;5.05;1.67;;;;;;;;;;5069463;28;20028;-65
2021/05/26 07:54:55;;;;;;;5.32;1.40;;;;;;;;;;5069373;28;20024;-64
2021/05/26 07:57:20;;;;;;;4.55;1.40;;;;;;;;;;5069516;28;20835;-63
2021/05/26 07:59:46;;;;;;;5.57;1.90;;;;;;;;;;5070364;28;20020;-65
2021/05/26 08:02:12;;;;;;;4.40;1.80;;;;;;;;;;5069837;28;20020;-64
2021/05/26 08:04:37;;;;;;;2.45;1.10;;;;;;;;;;5069636;28;20016;-64
2021/05/26 08:07:03;;;;;;;2.08;1.05;;;;;;;;;;5057561;28;20024;-62
2021/05/26 08:09:28;;;;;;;5.40;1.80;;;;;;;;;;5064393;28;20099;-65
2021/05/26 08:11:53;;;;;;;5.22;1.75;;;;;;;;;;5069621;28;20024;-63
2021/05/26 08:14:18;;;;;;;2.85;1.20;;;;;;;;;;5069925;28;20474;-65
2021/05/26 08:16:44;;;;;;;4.47;1.33;;;;;;;;;;5069440;28;20017;-64
2021/05/26 08:19:09;;;;;;;11.77;0.95;;;;;;;;;;5070429;28;20023;-65
2021/05/26 08:21:34;;;;;;;3.30;0.87;;;;;;;;;;5069410;28;20024;-65
2021/05/26 08:23:59;;;;;;;5.65;0.90;;;;;;;;;;5069585;28;20259;-64
2021/05/26 08:26:24;;;;;;;124.47;15.40;;;;;;;;;;5068420;28;20028;-64
2021/05/26 08:28:51;;;;;;;51.97;3.83;;;;;;;;;;5070138;28;20277;-64
2021/05/26 08:31:16;;;;;;;39.90;4.25;;;;;;;;;;5069782;28;20157;-65
2021/05/26 08:33:42;;;;;;;6.43;0.88;;;;;;;;;;5069575;28;20553;-62
2021/05/26 08:36:07;;;;;;;3.70;1.08;;;;;;;;;;5036386;28;20031;-64
2021/05/26 08:38:33;;;;;;;3.45;1.20;;;;;;;;;;5069449;28;20601;-65
2021/05/26 08:41:02;;;;;;;2.53;1.08;;;;;;;;;;5069675;28;20470;-64
2021/05/26 08:43:27;;;;;;;5.38;1.00;;;;;;;;;;5068757;28;20021;-65
2021/05/26 08:45:52;;;;;;;2.67;0.70;;;;;;;;;;5069474;28;20378;-65
2021/05/26 08:48:19;;;;;;;1.17;0.60;;;;;;;;;;5068044;28;20023;-65
2021/05/26 08:50:45;;;;;;;1.85;0.60;;;;;;;;;;5069120;28;20273;-64
2021/05/26 08:53:11;;;;;;;2.63;0.93;;;;;;;;;;5070664;28;20012;-64
2021/05/26 08:55:36;;;;;;;5.15;1.05;;;;;;;;;;5072427;28;20108;-65
2021/05/26 08:58:01;;;;;;;7.18;0.80;;;;;;;;;;5072144;28;20028;-65
2021/05/26 09:00:26;;;;;;;3.95;1.02;;;;;;;;;;5064971;28;20013;-64
2021/05/26 09:02:52;;;;;;;3.03;0.80;;;;;;;;;;5067253;28;20023;-65
2021/05/26 09:05:28;;;;;;;1.33;0.70;;;;;;;;;;5069114;28;20423;-63
2021/05/26 09:07:54;;;;;;;4.03;0.77;;;;;;;;;;5066860;28;20270;-63
2021/05/26 09:10:19;;;;;;;2.75;0.98;;;;;;;;;;5056706;28;20537;-65
2021/05/26 09:12:45;;;;;;;2.38;0.90;;;;;;;;;;5066870;28;20579;-64
2021/05/26 09:15:11;;;;;;;1.75;0.80;;;;;;;;;;5054582;28;20067;-63
2021/05/26 09:17:37;;;;;;;2.70;1.20;;;;;;;;;;5073043;28;20029;-63
2021/05/26 09:20:25;;;;;;;3.13;1.45;;;;;;;;;;5071357;28;20386;-64
2021/05/26 09:23:01;;;;;;;7.15;1.17;;;;;;;;;;5067966;28;20020;-64
2021/05/26 09:25:27;;;;;;;2.45;1.08;;;;;;;;;;5073162;28;20036;-64
2021/05/26 09:28:11;;;;;;;1.73;0.95;;;;;;;;;;5072603;28;20020;-65
2021/05/26 09:30:36;;;;;;;5.05;2.30;;;;;;;;;;5067581;28;20116;-64
2021/05/26 09:33:20;;;;;;;4.67;1.40;;;;;;;;;;5071448;28;20052;-63
2021/05/26 09:35:45;;;;;;;3.53;1.30;;;;;;;;;;5055849;28;20256;-63
2021/05/26 09:38:11;;;;;;;2.23;1.70;;;;;;;;;;5035126;28;20027;-64
2021/05/26 09:40:38;;;;;;;4.97;2.07;;;;;;;;;;5059155;28;20319;-62
2021/05/26 09:43:03;;;;;;;2.60;1.30;;;;;;;;;;5071982;28;20259;-64
2021/05/26 09:45:30;;;;;;;3.87;1.97;;;;;;;;;;5073185;28;20021;-63
2021/05/26 09:47:56;;;;;;;4.45;1.70;;;;;;;;;;5068982;28;20271;-64
2021/05/26 09:50:33;;;;;;;4.10;1.25;;;;;;;;;;5065203;28;20562;-64
2021/05/26 09:52:58;;;;;;;3.72;1.30;;;;;;;;;;5066673;28;20545;-64
2021/05/26 09:55:29;;;;;;;6.07;0.93;;;;;;;;;;5062399;28;20036;-64
2021/05/26 09:57:54;;;;;;;4.32;0.98;;;;;;;;;;5058924;28;20431;-64
2021/05/26 10:00:20;;;;;;;3.67;1.00;;;;;;;;;;5071148;28;20041;-64
2021/05/26 10:02:46;;;;;;;9.00;1.38;;;;;;;;;;5073054;28;20036;-65
2021/05/26 10:05:15;;;;;;;3.33;1.00;;;;;;;;;;5071414;28;20020;-62
2021/05/26 10:07:40;;;;;;;9.65;1.85;;;;;;;;;;5052576;28;20017;-64
2021/05/26 10:10:08;;;;;;;2.25;1.00;;;;;;;;;;5061775;28;20028;-64
2021/05/26 10:12:34;;;;;;;2.95;1.35;;;;;;;;;;5060776;28;20023;-64
2021/05/26 10:15:00;;;;;;;2.10;0.95;;;;;;;;;;5071403;28;20383;-63
2021/05/26 10:17:33;;;;;;;2.83;0.70;;;;;;;;;;5071523;28;20423;-63
2021/05/26 10:19:58;;;;;;;3.92;1.17;;;;;;;;;;5071887;28;20085;-64
2021/05/26 10:22:23;;;;;;;2.50;1.15;;;;;;;;;;5072185;28;20125;-63
2021/05/26 10:24:49;;;;;;;6.90;1.00;;;;;;;;;;5069621;28;20065;-65
2021/05/26 10:27:30;;;;;;;5.70;0.90;;;;;;;;;;5071949;28;20271;-63
2021/05/26 10:29:59;;;;;;;4.40;1.02;;;;;;;;;;5070926;28;20044;-61
2021/05/26 10:32:27;;;;;;;2.17;0.80;;;;;;;;;;5072376;28;20024;-65
2021/05/26 10:34:53;;;;;;;1.90;1.10;;;;;;;;;;5071510;28;20033;-62
2021/05/26 10:37:29;;;;;;;4.93;1.23;;;;;;;;;;5070599;28;20025;-64
2021/05/26 10:39:55;;;;;;;3.08;0.57;;;;;;;;;;5062048;28;20412;-63
2021/05/26 10:42:27;;;;;;;1.95;0.93;;;;;;;;;;5070627;28;20023;-64
2021/05/26 10:44:55;;;;;;;2.13;1.30;;;;;;;;;;5070756;28;20021;-63
2021/05/26 10:47:36;;;;;;;4.90;1.23;;;;;;;;;;5071095;28;20025;-64
2021/05/26 10:50:02;;;;;;;1.38;0.73;;;;;;;;;;5071850;28;20101;-63
2021/05/26 10:52:28;;;;;;;4.22;1.20;;;;;;;;;;5071604;28;20094;-64
2021/05/26 10:54:53;;;;;;;4.10;1.00;;;;;;;;;;5071316;28;20028;-64
2021/05/26 10:57:18;;;;;;;1.35;0.80;;;;;;;;;;5070412;28;20032;-63
2021/05/26 11:00:04;;;;;;;7.20;1.63;;;;;;;;;;5071832;28;20028;-65
2021/05/26 11:02:29;;;;;;;3.60;1.25;;;;;;;;;;5070765;28;20328;-63
2021/05/26 11:05:14;;;;;;;1.77;1.30;;;;;;;;;;5071104;28;20021;-65
2021/05/26 11:07:39;;;;;;;3.88;1.45;;;;;;;;;;5061168;28;20283;-63
2021/05/26 11:10:06;;;;;;;3.90;1.00;;;;;;;;;;5067335;28;20252;-64
2021/05/26 11:12:50;;;;;;;2.28;1.02;;;;;;;;;;5071015;28;20263;-62
2021/05/26 11:15:34;;;;;;;6.10;1.05;;;;;;;;;;5070136;28;20024;-61
2021/05/26 11:18:07;;;;;;;2.42;1.08;;;;;;;;;;5070634;28;20021;-64
2021/05/26 11:20:32;;;;;;;2.30;1.42;;;;;;;;;;5070996;28;20088;-65
2021/05/26 11:23:08;;;;;;;1.88;1.05;;;;;;;;;;5048227;28;20024;-63
2021/05/26 11:25:34;;;;;;;5.70;1.80;;;;;;;;;;5070605;28;20024;-63
2021/05/26 11:27:59;;;;;;;2.58;1.10;;;;;;;;;;5059997;28;20124;-64
2021/05/26 11:30:26;;;;;;;4.07;1.77;;;;;;;;;;5059959;28;20462;-64
2021/05/26 11:32:51;;;;;;;2.33;1.58;;;;;;;;;;5068039;28;20313;-64
2021/05/26 11:35:16;;;;;;;5.00;1.70;;;;;;;;;;5060632;28;20033;-64
2021/05/26 11:37:42;;;;;;;4.22;2.05;;;;;;;;;;5064067;28;20117;-65
2021/05/26 11:40:17;;;;;;;3.30;1.23;;;;;;;;;;5067203;28;20433;-63
2021/05/26 11:42:43;;;;;;;3.35;1.20;;;;;;;;;;5061256;28;20071;-64
2021/05/26 11:45:10;;;;;;;12.35;1.85;;;;;;;;;;5060372;28;20020;-64
2021/05/26 11:47:37;;;;;;;4.70;1.55;;;;;;;;;;5068210;28;20598;-64
2021/05/26 11:50:22;;;;;;;5.13;1.55;;;;;;;;;;5058945;28;20095;-63
2021/05/26 11:52:49;;;;;;;8.48;1.30;;;;;;;;;;5056418;28;20032;-64
2021/05/26 11:55:16;;;;;;;7.75;1.50;;;;;;;;;;5059036;28;20089;-64
2021/05/26 11:57:42;;;;;;;8.10;1.23;;;;;;;;;;5057102;28;20052;-63
2021/05/26 12:00:08;;;;;;;7.40;1.52;;;;;;;;;;5064558;28;20017;-63
2021/05/26 12:02:34;;;;;;;3.25;1.63;;;;;;;;;;5065501;28;20031;-65
2021/05/26 12:04:59;;;;;;;3.97;1.38;;;;;;;;;;5065487;28;20021;-63
2021/05/26 12:07:25;;;;;;;6.10;1.48;;;;;;;;;;5065360;28;20025;-64
2021/05/26 12:10:02;;;;;;;4.03;1.10;;;;;;;;;;5067890;28;20020;-64
2021/05/26 12:12:28;;;;;;;4.30;1.30;;;;;;;;;;5054121;28;20509;-64
2021/05/26 12:14:53;;;;;;;3.60;2.00;;;;;;;;;;5067041;28;20020;-64
2021/05/26 12:17:19;;;;;;;5.93;1.63;;;;;;;;;;5047729;28;20506;-62
2021/05/26 12:19:45;;;;;;;2.38;1.38;;;;;;;;;;5062604;28;20100;-64
2021/05/26 12:22:26;;;;;;;5.68;1.90;;;;;;;;;;5066710;28;20095;-64
2021/05/26 12:25:01;;;;;;;4.90;1.63;;;;;;;;;;5068666;28;20020;-64
2021/05/26 12:27:35;;;;;;;6.25;2.25;;;;;;;;;;5069521;28;20103;-64
2021/05/26 12:30:19;;;;;;;2.75;1.50;;;;;;;;;;5060323;28;20143;-64
2021/05/26 12:32:45;;;;;;;2.33;1.30;;;;;;;;;;5054582;28;20021;-64
2021/05/26 12:35:18;;;;;;;4.25;1.70;;;;;;;;;;5064021;28;20035;-64
2021/05/26 12:37:46;;;;;;;3.13;1.25;;;;;;;;;;5066078;28;20020;-63
2021/05/26 12:40:26;;;;;;;3.28;1.23;;;;;;;;;;5066031;28;20015;-64
2021/05/26 12:42:51;;;;;;;;;;;;;;;;;;5066372;28;20493;-63
2021/05/26 12:45:17;;;;;;;2.83;1.10;;;;;;;;;;5063231;28;20410;-63
2021/05/26 12:47:42;;;;;;;2.60;1.17;;;;;;;;;;5067310;28;20021;-63
2021/05/26 12:50:09;;;;;;;1.30;0.52;;;;;;;;;;5063442;28;20102;-62
2021/05/26 12:52:34;;;;;;;5.28;1.10;;;;;;;;;;5065233;28;20056;-63
2021/05/26 12:55:07;;;;;;;4.30;1.50;;;;;;;;;;5071798;23;20128;-68
2021/05/26 12:57:32;;;;;;;4.78;1.58;;;;;;;;;;5040689;28;20632;-68
2021/05/26 12:59:59;;;;;;;3.63;1.50;;;;;;;;;;5047848;28;20017;-68
2021/05/26 13:02:31;;;;;;;3.95;1.23;;;;;;;;;;5046332;28;20028;-68
2021/05/26 13:04:57;;;;;;;8.00;2.83;;;;;;;;;;5059654;28;20029;-69
2021/05/26 13:07:26;;;;;;;5.97;1.73;;;;;;;;;;5065117;28;20499;-70
2021/05/26 13:09:51;;;;;;;4.57;1.30;;;;;;;;;;5070051;28;20023;-68
2021/05/26 13:12:23;;;;;;;1.70;0.95;;;;;;;;;;5065702;28;20490;-67
2021/05/26 13:14:48;;;;;;;5.40;0.98;;;;;;;;;;5069527;28;20017;-67
2021/05/26 13:17:13;;;;;;;4.97;2.03;;;;;;;;;;5068986;28;20032;-68
2021/05/26 13:19:38;;;;;;;3.00;1.87;;;;;;;;;;5066182;28;20100;-69
2021/05/26 13:22:04;;;;;;;3.28;1.40;;;;;;;;;;5069496;28;20267;-68
2021/05/26 13:24:29;;;;;;;4.32;2.00;;;;;;;;;;5070211;28;20334;-68
2021/05/26 13:26:55;;;;;;;12.27;1.60;;;;;;;;;;5065642;28;20470;-68
2021/05/26 13:29:21;;;;;;;5.78;2.15;;;;;;;;;;5069223;28;20278;-68
2021/05/26 13:31:46;;;;;;;7.75;2.08;;;;;;;;;;5066187;28;20028;-68
2021/05/26 13:34:11;;;;;;;5.37;2.20;;;;;;;;;;5057321;28;20417;-68
2021/05/26 13:36:37;;;;;;;4.10;1.97;;;;;;;;;;5068469;28;20328;-68
2021/05/26 13:39:03;;;;;;;3.03;1.85;;;;;;;;;;5065933;28;20313;-68
2021/05/26 13:41:28;;;;;;;2.33;1.40;;;;;;;;;;5069877;28;20044;-68
2021/05/26 13:43:53;;;;;;;3.80;1.80;;;;;;;;;;5070305;28;20097;-68
2021/05/26 13:46:21;;;;;;;6.05;1.70;;;;;;;;;;5071103;28;20021;-68
2021/05/26 13:48:48;;;;;;;6.28;1.83;;;;;;;;;;5071814;28;20013;-69
2021/05/26 13:51:15;;;;;;;3.13;1.83;;;;;;;;;;5067460;28;20496;-68
2021/05/26 13:53:40;;;;;;;7.90;1.65;;;;;;;;;;5075231;28;20043;-68
2021/05/26 13:56:05;;;;;;;3.67;1.60;;;;;;;;;;5070865;28;20485;-68
2021/05/26 13:58:31;;;;;;;5.43;2.50;;;;;;;;;;5075826;28;20267;-68
2021/05/26 14:00:56;;;;;;;3.72;2.50;;;;;;;;;;5071003;28;20363;-68
2021/05/26 14:03:21;;;;;;;3.20;1.60;;;;;;;;;;5073225;28;20373;-68
2021/05/26 14:05:46;;;;;;;11.00;2.47;;;;;;;;;;5072080;28;20060;-68
2021/05/26 14:08:12;;;;;;;7.50;2.00;;;;;;;;;;5075528;28;20263;-68
2021/05/26 14:10:37;;;;;;;10.75;1.55;;;;;;;;;;5070764;28;20502;-68
2021/05/26 14:13:03;;;;;;;3.00;1.70;;;;;;;;;;5071964;28;20363;-68
2021/05/26 14:15:29;;;;;;;2.92;1.80;;;;;;;;;;5071216;28;20078;-68
2021/05/26 14:17:56;;;;;;;3.40;1.92;;;;;;;;;;5068822;28;20035;-68
2021/05/26 14:20:21;;;;;;;8.75;1.90;;;;;;;;;;5071442;28;20031;-68
2021/05/26 14:22:46;;;;;;;2.17;1.35;;;;;;;;;;5076382;28;20012;-68
2021/05/26 14:25:13;;;;;;;2.55;1.52;;;;;;;;;;5072092;28;20020;-67
2021/05/26 14:27:38;;;;;;;3.20;1.27;;;;;;;;;;5072904;28;20020;-68
2021/05/26 14:30:05;;;;;;;2.25;1.52;;;;;;;;;;5070247;28;20028;-67
2021/05/26 14:32:30;;;;;;;5.07;1.80;;;;;;;;;;5070553;28;20033;-68
2021/05/26 14:34:56;;;;;;;9.65;2.45;;;;;;;;;;5069605;28;20560;-68
2021/05/26 14:37:22;;;;;;;9.45;3.13;;;;;;;;;;5074216;28;20017;-68
2021/05/26 14:39:51;;;;;;;5.65;3.10;;;;;;;;;;5071222;28;20421;-68